createdAt,value
2019-05-10T00:02:07.531Z,0.30
2019-05-10T00:04:51.907Z,0.27
2019-05-10T00:07:37.135Z,0.28
2019-05-10T00:10:04.780Z,0.26
2019-05-10T00:12:38.890Z,0.23
2019-05-10T00:15:05.946Z,0.15
2019-05-10T00:17:32.181Z,0.08
2019-05-10T00:19:58.428Z,0.07
2019-05-10T00:22:24.701Z,0.05
2019-05-10T00:25:03.228Z,-0.03
2019-05-10T00:27:19.157Z,-0.07
2019-05-10T00:29:45.404Z,-0.10
2019-05-10T00:32:11.645Z,-0.13
2019-05-10T00:34:37.883Z,-0.14
2019-05-10T00:37:04.128Z,-0.20
2019-05-10T00:39:30.361Z,-0.27
2019-05-10T00:41:56.607Z,-0.30
2019-05-10T00:44:22.838Z,-0.30
2019-05-10T00:46:49.093Z,-0.35
2019-05-10T00:49:15.342Z,-0.43
2019-05-10T00:51:41.585Z,-0.48
2019-05-10T00:54:07.813Z,-0.54
2019-05-10T00:56:34.066Z,-0.59
2019-05-10T00:59:00.299Z,-0.63
2019-05-10T01:01:26.541Z,-0.68
2019-05-10T01:03:52.771Z,-0.71
2019-05-10T01:06:19.040Z,-0.70
2019-05-10T01:08:45.263Z,-0.76
2019-05-10T01:11:11.503Z,-0.78
2019-05-10T01:13:37.736Z,-0.82
2019-05-10T01:16:03.979Z,-0.85
2019-05-10T01:18:30.207Z,-0.84
2019-05-10T01:20:56.451Z,-0.85
2019-05-10T01:23:22.682Z,-0.94
2019-05-10T01:25:48.916Z,-1.03
2019-05-10T01:28:15.189Z,-1.06
2019-05-10T01:30:41.425Z,-1.07
2019-05-10T01:33:07.676Z,-1.12
2019-05-10T01:35:33.903Z,-1.18
2019-05-10T01:38:00.354Z,-1.20
2019-05-10T01:40:26.588Z,-1.24
2019-05-10T01:42:52.831Z,-1.28
2019-05-10T01:45:19.054Z,-1.26
2019-05-10T01:47:45.327Z,-1.21
2019-05-10T01:50:11.569Z,-1.18
2019-05-10T01:52:37.819Z,-1.27
2019-05-10T01:55:06.179Z,-1.27
2019-05-10T01:57:32.433Z,-1.33
2019-05-10T01:59:58.663Z,-1.40
2019-05-10T02:02:24.923Z,-1.45
2019-05-10T02:04:51.176Z,-1.43
2019-05-10T02:07:17.403Z,-1.48
2019-05-10T02:09:43.661Z,-1.50
2019-05-10T02:12:09.889Z,-1.50
2019-05-10T02:14:36.145Z,-1.45
2019-05-10T02:17:02.386Z,-1.47
2019-05-10T02:19:28.650Z,-1.42
2019-05-10T02:21:54.907Z,-1.44
2019-05-10T02:24:21.245Z,-1.42
2019-05-10T02:26:47.478Z,-1.44
2019-05-10T02:29:13.741Z,-1.48
2019-05-10T02:31:39.975Z,-1.44
2019-05-10T02:34:06.330Z,-1.44
2019-05-10T02:36:32.564Z,-1.43
2019-05-10T02:38:58.810Z,-1.41
2019-05-10T02:41:25.065Z,-1.61
2019-05-10T02:43:51.337Z,-1.29
2019-05-10T02:46:17.635Z,-1.30
2019-05-10T02:48:43.890Z,-1.32
2019-05-10T02:51:10.177Z,-1.30
2019-05-10T02:53:36.621Z,-1.29
2019-05-10T02:56:03.028Z,-1.28
2019-05-10T02:58:31.703Z,-1.25
2019-05-10T03:01:00.286Z,-1.22
2019-05-10T03:03:29.789Z,-1.16
2019-05-10T03:05:57.732Z,-1.11
2019-05-10T03:08:24.013Z,-1.06
2019-05-10T03:10:56.272Z,-1.00
2019-05-10T03:13:29.070Z,-0.95
2019-05-10T03:15:57.725Z,-0.88
2019-05-10T03:18:27.055Z,-0.83
2019-05-10T03:20:56.923Z,-0.77
2019-05-10T03:23:24.754Z,-0.70
2019-05-10T03:25:50.968Z,-0.61
2019-05-10T03:28:17.217Z,-0.42
2019-05-10T03:30:43.452Z,-0.36
2019-05-10T03:33:09.809Z,-0.28
2019-05-10T03:35:36.024Z,-0.22
2019-05-10T03:38:02.262Z,-0.15
2019-05-10T03:40:28.502Z,-0.07
2019-05-10T03:42:54.760Z,0.04
2019-05-10T03:45:20.987Z,0.17
2019-05-10T03:47:47.261Z,0.28
2019-05-10T03:50:13.788Z,0.40
2019-05-10T03:52:40.054Z,0.53
2019-05-10T03:55:06.484Z,0.72
2019-05-10T03:57:32.741Z,0.89
2019-05-10T03:59:58.967Z,1.05
2019-05-10T04:02:25.242Z,1.24
2019-05-10T04:04:51.456Z,1.42
2019-05-10T04:07:17.710Z,1.62
2019-05-10T04:09:43.947Z,1.86
2019-05-10T04:12:10.189Z,2.13
2019-05-10T04:14:36.435Z,2.42
2019-05-10T04:17:02.671Z,2.76
2019-05-10T04:19:28.916Z,3.16
2019-05-10T04:21:55.164Z,3.62
2019-05-10T04:24:21.412Z,4.14
2019-05-10T04:26:47.665Z,4.66
2019-05-10T04:29:13.935Z,5.18
2019-05-10T04:31:40.148Z,5.64
2019-05-10T04:34:06.422Z,6.09
2019-05-10T04:36:32.687Z,6.50
2019-05-10T04:38:58.944Z,6.95
2019-05-10T04:41:25.161Z,7.37
2019-05-10T04:43:51.407Z,7.72
2019-05-10T04:46:17.643Z,7.98
2019-05-10T04:48:43.885Z,8.29
2019-05-10T04:51:10.145Z,8.77
2019-05-10T04:53:36.389Z,8.97
2019-05-10T04:56:02.637Z,9.29
2019-05-10T04:58:28.866Z,9.05
2019-05-10T05:00:55.115Z,9.75
2019-05-10T05:03:21.350Z,10.33
2019-05-10T05:05:47.589Z,10.78
2019-05-10T05:08:13.834Z,11.20
2019-05-10T05:10:40.076Z,11.54
2019-05-10T05:13:06.309Z,11.61
2019-05-10T05:15:32.557Z,11.48
2019-05-10T05:17:58.786Z,11.62
2019-05-10T05:20:25.195Z,11.80
2019-05-10T05:22:51.470Z,12.02
2019-05-10T05:25:17.703Z,12.39
2019-05-10T05:27:43.924Z,12.96
2019-05-10T05:30:10.379Z,13.48
2019-05-10T05:32:38.607Z,13.60
2019-05-10T05:35:04.855Z,13.31
2019-05-10T05:37:31.096Z,13.75
2019-05-10T05:39:57.336Z,13.71
2019-05-10T05:42:27.910Z,13.91
2019-05-10T05:44:51.717Z,14.21
2019-05-10T05:47:17.960Z,14.25
2019-05-10T05:49:44.195Z,14.22
2019-05-10T05:52:10.450Z,14.68
2019-05-10T05:54:36.671Z,14.79
2019-05-10T05:57:02.921Z,15.21
2019-05-10T05:59:29.172Z,15.66
2019-05-10T06:02:00.873Z,15.66
2019-05-10T06:04:23.572Z,16.21
2019-05-10T06:06:53.849Z,16.03
2019-05-10T06:09:17.965Z,16.02
2019-05-10T06:11:44.213Z,16.03
2019-05-10T06:14:12.607Z,15.67
2019-05-10T06:16:38.579Z,16.28
2019-05-10T06:19:05.647Z,17.00
2019-05-10T06:21:31.894Z,16.86
2019-05-10T06:23:59.491Z,16.74
2019-05-10T06:26:28.648Z,16.70
2019-05-10T06:28:59.466Z,16.68
2019-05-10T06:31:22.483Z,16.87
2019-05-10T06:33:48.745Z,16.36
2019-05-10T06:36:15.000Z,16.78
2019-05-10T06:38:41.245Z,17.27
2019-05-10T06:41:09.969Z,17.63
2019-05-10T06:43:35.645Z,17.62
2019-05-10T06:46:01.915Z,17.89
2019-05-10T06:48:33.278Z,18.29
2019-05-10T06:50:56.333Z,17.77
2019-05-10T06:53:23.371Z,17.41
2019-05-10T06:55:49.842Z,18.00
2019-05-10T06:58:16.139Z,17.97
2019-05-10T07:00:44.926Z,17.26
2019-05-10T07:03:10.527Z,17.26
2019-05-10T07:05:36.779Z,17.22
2019-05-10T07:08:13.993Z,17.99
2019-05-10T07:10:33.813Z,17.54
2019-05-10T07:13:03.596Z,17.74
2019-05-10T07:15:27.497Z,18.02
2019-05-10T07:17:53.734Z,18.46
2019-05-10T07:20:23.767Z,17.85
2019-05-10T07:22:48.152Z,17.77
2019-05-10T07:25:14.378Z,17.25
2019-05-10T07:27:40.633Z,17.09
2019-05-10T07:30:06.883Z,17.09
2019-05-10T07:32:33.108Z,17.72
2019-05-10T07:35:01.051Z,17.39
2019-05-10T07:37:27.429Z,16.17
2019-05-10T07:39:53.685Z,16.65
2019-05-10T07:42:20.239Z,16.49
2019-05-10T07:44:48.680Z,16.23
2019-05-10T07:47:14.654Z,15.57
2019-05-10T07:49:40.902Z,15.37
2019-05-10T07:52:07.151Z,14.77
2019-05-10T07:54:37.535Z,14.64
2019-05-10T07:57:01.528Z,14.17
2019-05-10T07:59:32.427Z,14.30
2019-05-10T08:01:55.928Z,14.45
2019-05-10T08:04:28.841Z,14.78
2019-05-10T08:06:52.104Z,14.48
2019-05-10T08:09:19.226Z,14.44
2019-05-10T08:11:48.343Z,14.25
2019-05-10T08:14:13.957Z,14.59
2019-05-10T08:16:40.241Z,14.21
2019-05-10T08:19:06.482Z,14.40
2019-05-10T08:21:32.733Z,14.23
2019-05-10T08:24:04.351Z,14.32
2019-05-10T08:26:27.167Z,14.58
2019-05-10T08:28:53.389Z,15.28
2019-05-10T08:31:21.797Z,15.84
2019-05-10T08:33:53.630Z,16.25
2019-05-10T08:36:15.948Z,16.28
2019-05-10T08:38:46.259Z,16.58
2019-05-10T08:41:14.851Z,17.34
2019-05-10T08:43:40.101Z,16.68
2019-05-10T08:46:06.677Z,16.45
2019-05-10T08:48:33.174Z,16.94
2019-05-10T08:51:04.013Z,17.22
2019-05-10T08:53:27.721Z,17.46
2019-05-10T08:55:53.962Z,17.46
2019-05-10T08:58:31.071Z,16.93
2019-05-10T09:00:54.804Z,16.20
2019-05-10T09:03:18.531Z,16.20
2019-05-10T09:05:44.721Z,16.89
2019-05-10T09:08:19.682Z,17.22
2019-05-10T09:10:39.149Z,17.22
2019-05-10T09:13:05.421Z,16.59
2019-05-10T09:15:33.147Z,17.05
2019-05-10T09:18:04.354Z,16.80
2019-05-10T09:20:27.777Z,16.95
2019-05-10T09:22:54.025Z,17.44
2019-05-10T09:25:26.446Z,17.13
2019-05-10T09:27:48.441Z,16.81
2019-05-10T09:30:27.298Z,16.88
2019-05-10T09:32:53.555Z,16.98
2019-05-10T09:35:22.041Z,16.98
2019-05-10T09:37:54.131Z,17.46
2019-05-10T09:40:16.169Z,17.76
2019-05-10T09:42:43.715Z,17.90
2019-05-10T09:45:12.828Z,17.67
2019-05-10T09:47:39.061Z,16.24
2019-05-10T09:50:05.319Z,17.05
2019-05-10T09:52:31.581Z,17.42
2019-05-10T09:54:57.849Z,17.33
2019-05-10T09:57:24.107Z,16.73
2019-05-10T09:59:50.356Z,16.68
2019-05-10T10:02:18.955Z,17.10
2019-05-10T10:04:47.225Z,17.60
2019-05-10T10:07:12.929Z,17.96
2019-05-10T10:09:44.511Z,18.08
2019-05-10T10:12:07.691Z,18.56
2019-05-10T10:14:39.459Z,18.74
2019-05-10T10:17:03.240Z,18.96
2019-05-10T10:19:29.865Z,18.44
2019-05-10T10:21:57.647Z,18.07
2019-05-10T10:24:24.668Z,17.16
2019-05-10T10:26:53.875Z,17.67
2019-05-10T10:29:19.088Z,18.33
2019-05-10T10:31:54.601Z,18.58
2019-05-10T10:34:13.481Z,19.35
2019-05-10T10:36:43.784Z,19.31
2019-05-10T10:39:07.892Z,19.47
2019-05-10T10:41:34.134Z,19.62
2019-05-10T10:44:00.367Z,19.14
2019-05-10T10:46:28.026Z,19.58
2019-05-10T10:48:54.476Z,20.06
2019-05-10T10:51:20.771Z,19.61
2019-05-10T10:53:47.225Z,19.66
2019-05-10T10:56:13.482Z,19.54
2019-05-10T10:58:39.724Z,19.14
2019-05-10T11:01:10.718Z,18.62
2019-05-10T11:03:35.128Z,18.77
2019-05-10T11:06:01.364Z,19.03
2019-05-10T11:08:27.610Z,19.19
2019-05-10T11:10:54.175Z,19.41
2019-05-10T11:13:39.884Z,19.46
2019-05-10T11:15:48.552Z,18.28
2019-05-10T11:18:14.818Z,18.05
2019-05-10T11:20:49.053Z,17.87
2019-05-10T11:23:10.694Z,19.25
2019-05-10T11:25:42.779Z,19.31
2019-05-10T11:28:08.903Z,19.02
2019-05-10T11:30:33.468Z,19.49
2019-05-10T11:33:00.547Z,18.73
2019-05-10T11:35:31.223Z,18.79
2019-05-10T11:37:55.031Z,18.46
2019-05-10T11:40:29.859Z,18.32
2019-05-10T11:42:51.077Z,18.33
2019-05-10T11:45:18.162Z,18.88
2019-05-10T11:47:48.127Z,19.16
2019-05-10T11:50:27.652Z,18.98
2019-05-10T11:52:41.610Z,18.46
2019-05-10T11:55:08.365Z,18.77
2019-05-10T11:57:34.590Z,19.34
2019-05-10T12:00:00.835Z,19.19
2019-05-10T12:02:37.324Z,19.06
2019-05-10T12:04:55.215Z,18.85
2019-05-10T12:07:24.652Z,19.00
2019-05-10T12:09:53.305Z,19.19
2019-05-10T12:12:29.703Z,18.89
2019-05-10T12:14:46.655Z,19.04
2019-05-10T12:17:14.259Z,19.23
2019-05-10T12:19:47.636Z,19.58
2019-05-10T12:22:08.905Z,19.54
2019-05-10T12:24:52.499Z,19.45
2019-05-10T12:27:16.843Z,19.28
2019-05-10T12:29:31.774Z,19.31
2019-05-10T12:31:58.138Z,19.25
2019-05-10T12:34:24.481Z,18.67
2019-05-10T12:36:51.952Z,19.03
2019-05-10T12:39:18.487Z,18.81
2019-05-10T12:41:48.615Z,18.62
2019-05-10T12:44:12.851Z,18.89
2019-05-10T12:46:42.097Z,19.00
2019-05-10T12:49:07.249Z,19.49
2019-05-10T12:51:33.479Z,19.52
2019-05-10T12:53:59.754Z,19.11
2019-05-10T12:56:25.975Z,19.48
2019-05-10T12:58:57.705Z,19.91
2019-05-10T13:01:25.507Z,19.67
2019-05-10T13:03:48.522Z,19.58
2019-05-10T13:06:14.745Z,19.64
2019-05-10T13:08:40.993Z,19.30
2019-05-10T13:11:07.220Z,19.25
2019-05-10T13:13:33.518Z,18.92
2019-05-10T13:16:03.711Z,18.12
2019-05-10T13:18:49.252Z,18.17
2019-05-10T13:20:56.032Z,17.87
2019-05-10T13:23:22.302Z,17.10
2019-05-10T13:25:48.552Z,17.10
2019-05-10T13:28:14.816Z,16.95
2019-05-10T13:30:41.263Z,16.79
2019-05-10T13:33:07.525Z,16.52
2019-05-10T13:35:33.770Z,16.65
2019-05-10T13:38:03.648Z,16.80
2019-05-10T13:40:28.205Z,16.73
2019-05-10T13:42:54.446Z,16.60
2019-05-10T13:45:20.710Z,16.71
2019-05-10T13:47:46.960Z,16.45
2019-05-10T13:50:14.009Z,16.37
2019-05-10T13:52:41.429Z,16.08
2019-05-10T13:55:07.999Z,15.87
2019-05-10T13:57:34.233Z,15.90
2019-05-10T14:00:02.494Z,15.96
2019-05-10T14:02:33.212Z,15.84
2019-05-10T14:04:56.755Z,15.58
2019-05-10T14:07:23.036Z,15.77
2019-05-10T14:09:49.252Z,15.88
2019-05-10T14:12:16.188Z,15.69
2019-05-10T14:14:43.671Z,15.41
2019-05-10T14:17:09.915Z,15.29
2019-05-10T14:19:36.513Z,15.29
2019-05-10T14:22:02.819Z,15.26
2019-05-10T14:24:29.078Z,15.41
2019-05-10T14:26:57.361Z,15.63
2019-05-10T14:29:33.530Z,15.49
2019-05-10T14:31:51.619Z,15.53
2019-05-10T14:34:17.832Z,15.51
2019-05-10T14:36:44.082Z,15.54
2019-05-10T14:39:10.355Z,15.39
2019-05-10T14:41:39.597Z,15.40
2019-05-10T14:44:04.749Z,15.41
2019-05-10T14:46:31.001Z,15.35
2019-05-10T14:48:57.231Z,15.28
2019-05-10T14:51:38.707Z,15.06
2019-05-10T14:53:51.626Z,15.25
2019-05-10T14:56:17.872Z,15.40
2019-05-10T14:58:44.116Z,15.35
2019-05-10T15:01:10.364Z,15.38
2019-05-10T15:03:45.471Z,15.39
2019-05-10T15:06:04.737Z,15.30
2019-05-10T15:08:30.994Z,15.29
2019-05-10T15:11:00.065Z,15.30
2019-05-10T15:13:28.322Z,15.35
2019-05-10T15:15:54.469Z,15.42
2019-05-10T15:20:49.093Z,15.17
2019-05-10T15:23:15.346Z,15.24
2019-05-10T15:25:55.711Z,15.09
2019-05-10T15:28:09.759Z,14.85
2019-05-10T15:30:39.395Z,14.73
2019-05-10T15:33:04.136Z,14.69
2019-05-10T15:35:30.385Z,14.50
2019-05-10T15:37:56.613Z,14.48
2019-05-10T15:40:22.859Z,14.52
2019-05-10T15:42:49.092Z,14.60
2019-05-10T15:45:19.251Z,14.64
2019-05-10T15:47:51.429Z,14.70
2019-05-10T15:50:12.567Z,14.71
2019-05-10T15:52:39.656Z,14.57
2019-05-10T15:55:07.042Z,14.48
2019-05-10T15:57:33.296Z,14.39
2019-05-10T15:59:59.521Z,14.18
2019-05-10T16:02:25.761Z,13.98
2019-05-10T16:04:51.982Z,14.05
2019-05-10T16:07:18.210Z,14.09
2019-05-10T16:09:44.445Z,14.01
2019-05-10T16:12:10.666Z,13.84
2019-05-10T16:14:39.253Z,13.73
2019-05-10T16:17:10.380Z,13.75
2019-05-10T16:19:33.173Z,13.68
2019-05-10T16:21:59.397Z,13.63
2019-05-10T16:24:27.695Z,13.53
2019-05-10T16:26:54.628Z,13.54
2019-05-10T16:29:21.910Z,13.61
2019-05-10T16:31:48.148Z,13.65
2019-05-10T16:34:14.393Z,13.59
2019-05-10T16:36:40.620Z,13.67
2019-05-10T16:39:06.976Z,13.68
2019-05-10T16:41:33.243Z,13.71
2019-05-10T16:44:00.205Z,13.78
2019-05-10T16:46:26.649Z,13.75
2019-05-10T16:48:52.896Z,13.75
2019-05-10T16:51:19.157Z,13.68
2019-05-10T16:53:45.976Z,13.71
2019-05-10T16:56:13.439Z,13.68
2019-05-10T16:58:40.469Z,13.58
2019-05-10T17:01:06.717Z,13.45
2019-05-10T17:03:32.942Z,13.35
2019-05-10T17:06:04.231Z,13.23
2019-05-10T17:08:30.685Z,13.23
2019-05-10T17:10:55.457Z,13.12
2019-05-10T17:13:21.706Z,13.01
2019-05-10T17:15:47.947Z,12.90
2019-05-10T17:18:17.798Z,12.91
2019-05-10T17:20:45.340Z,12.95
2019-05-10T17:23:11.267Z,12.97
2019-05-10T17:25:40.541Z,13.05
2019-05-10T17:28:05.860Z,13.06
2019-05-10T17:30:32.087Z,13.01
2019-05-10T17:33:04.106Z,12.84
2019-05-10T17:35:26.484Z,12.80
2019-05-10T17:37:53.121Z,12.80
2019-05-10T17:40:19.570Z,12.62
2019-05-10T17:42:45.819Z,12.58
2019-05-10T17:45:12.171Z,12.46
2019-05-10T17:47:38.440Z,12.49
2019-05-10T17:50:05.865Z,12.42
2019-05-10T17:52:32.152Z,12.33
2019-05-10T17:54:58.379Z,12.24
2019-05-10T17:57:24.629Z,12.28
2019-05-10T17:59:53.096Z,12.31
2019-05-10T18:02:19.023Z,12.23
2019-05-10T18:04:45.261Z,12.08
2019-05-10T18:07:11.488Z,11.99
2019-05-10T18:09:37.736Z,12.01
2019-05-10T18:12:03.988Z,12.01
2019-05-10T18:14:30.225Z,12.00
2019-05-10T18:16:56.492Z,11.94
2019-05-10T18:19:24.655Z,11.93
2019-05-10T18:21:54.970Z,11.86
2019-05-10T18:24:19.017Z,11.80
2019-05-10T18:26:45.239Z,11.71
2019-05-10T18:29:11.516Z,11.63
2019-05-10T18:31:37.761Z,11.61
2019-05-10T18:34:04.000Z,11.54
2019-05-10T18:36:50.422Z,11.46
2019-05-10T18:38:58.387Z,11.38
2019-05-10T18:41:24.623Z,11.34
2019-05-10T18:43:50.860Z,11.28
2019-05-10T18:46:17.107Z,11.24
2019-05-10T18:48:43.347Z,11.20
2019-05-10T18:51:09.594Z,11.14
2019-05-10T18:53:35.884Z,11.11
2019-05-10T18:56:02.243Z,11.10
2019-05-10T18:58:31.296Z,11.07
2019-05-10T19:01:00.794Z,11.03
2019-05-10T19:03:28.003Z,10.92
2019-05-10T19:05:52.946Z,10.88
2019-05-10T19:08:19.175Z,10.83
2019-05-10T19:10:45.413Z,10.78
2019-05-10T19:13:12.003Z,10.75
2019-05-10T19:15:38.598Z,10.69
2019-05-10T19:18:04.824Z,10.61
2019-05-10T19:20:31.101Z,10.59
2019-05-10T19:22:57.336Z,10.54
2019-05-10T19:25:23.595Z,10.47
2019-05-10T19:27:50.995Z,10.40
2019-05-10T19:30:19.903Z,10.32
2019-05-10T19:32:45.628Z,10.26
2019-05-10T19:35:11.850Z,10.23
2019-05-10T19:37:38.100Z,10.19
2019-05-10T19:40:06.241Z,10.16
2019-05-10T19:42:37.303Z,10.06
2019-05-10T19:45:00.610Z,10.02
2019-05-10T19:47:26.857Z,9.95
2019-05-10T19:49:53.524Z,9.93
2019-05-10T19:52:21.285Z,9.88
2019-05-10T19:54:48.192Z,9.85
2019-05-10T19:57:16.250Z,9.87
2019-05-10T19:59:43.995Z,9.85
2019-05-10T20:02:10.831Z,8.80
2019-05-10T20:04:37.065Z,9.74
2019-05-10T20:07:03.421Z,9.69
2019-05-10T20:09:29.645Z,9.63
2019-05-10T20:11:55.988Z,9.57
2019-05-10T20:14:22.224Z,9.52
2019-05-10T20:16:52.829Z,9.48
2019-05-10T20:19:16.616Z,9.43
2019-05-10T20:21:42.861Z,9.39
2019-05-10T20:24:09.102Z,9.39
2019-05-10T20:26:35.328Z,9.40
2019-05-10T20:29:01.583Z,9.39
2019-05-10T20:31:30.637Z,9.34
2019-05-10T20:33:55.960Z,9.25
2019-05-10T20:36:22.185Z,9.21
2019-05-10T20:38:48.431Z,9.17
2019-05-10T20:41:14.665Z,9.15
2019-05-10T20:43:40.910Z,9.17
2019-05-10T20:46:07.347Z,9.19
2019-05-10T20:48:33.661Z,9.17
2019-05-10T20:50:59.937Z,9.14
2019-05-10T20:53:26.199Z,9.11
2019-05-10T20:55:52.431Z,9.09
2019-05-10T20:58:18.689Z,9.07
2019-05-10T21:00:44.901Z,9.00
2019-05-10T21:03:11.140Z,8.95
2019-05-10T21:05:37.396Z,8.93
2019-05-10T21:08:16.074Z,8.91
2019-05-10T21:10:31.787Z,8.90
2019-05-10T21:12:58.025Z,8.89
2019-05-10T21:15:24.268Z,8.87
2019-05-10T21:17:50.510Z,8.85
2019-05-10T21:20:16.757Z,8.82
2019-05-10T21:22:43.001Z,8.82
2019-05-10T21:25:09.244Z,8.81
2019-05-10T21:27:35.473Z,8.07
2019-05-10T21:30:01.814Z,8.78
2019-05-10T21:32:28.053Z,8.75
2019-05-10T21:34:54.288Z,8.75
2019-05-10T21:37:20.526Z,8.70
2019-05-10T21:39:46.771Z,8.66
2019-05-10T21:42:13.009Z,8.64
2019-05-10T21:44:39.256Z,8.58
2019-05-10T21:47:05.487Z,8.54
2019-05-10T21:49:31.749Z,8.50
2019-05-10T21:51:57.983Z,8.49
2019-05-10T21:54:24.229Z,8.46
2019-05-10T21:56:50.477Z,8.45
2019-05-10T21:59:16.706Z,8.45
2019-05-10T22:01:42.943Z,8.44
2019-05-10T22:04:09.168Z,8.44
2019-05-10T22:06:35.418Z,8.45
2019-05-10T22:09:01.646Z,8.42
2019-05-10T22:11:27.889Z,8.41
2019-05-10T22:13:54.115Z,8.38
2019-05-10T22:16:20.386Z,8.34
2019-05-10T22:18:48.402Z,8.29
2019-05-10T22:21:14.654Z,8.25
2019-05-10T22:23:40.888Z,8.23
2019-05-10T22:26:07.149Z,8.19
2019-05-10T22:28:33.381Z,8.16
2019-05-10T22:30:59.619Z,8.15
2019-05-10T22:33:25.851Z,8.16
2019-05-10T22:35:52.094Z,8.15
2019-05-10T22:38:18.329Z,8.16
2019-05-10T22:40:44.556Z,8.16
2019-05-10T22:43:10.805Z,8.16
2019-05-10T22:45:37.055Z,8.12
2019-05-10T22:48:03.294Z,8.06
2019-05-10T22:50:29.541Z,8.01
2019-05-10T22:52:55.797Z,7.98
2019-05-10T22:55:22.022Z,7.96
2019-05-10T22:57:48.265Z,7.94
2019-05-10T23:00:14.817Z,7.94
2019-05-10T23:02:41.061Z,7.92
2019-05-10T23:05:07.395Z,7.93
2019-05-10T23:07:33.626Z,7.92
2019-05-10T23:09:59.969Z,7.91
2019-05-10T23:12:26.208Z,7.86
2019-05-10T23:14:52.448Z,7.82
2019-05-10T23:17:18.691Z,7.76
2019-05-10T23:19:44.934Z,7.72
2019-05-10T23:22:11.178Z,7.69
2019-05-10T23:24:40.381Z,7.67
2019-05-10T23:27:06.923Z,7.64
2019-05-10T23:29:33.261Z,7.59
2019-05-10T23:31:59.490Z,7.53
2019-05-10T23:34:25.740Z,7.49
2019-05-10T23:36:51.974Z,7.40
2019-05-10T23:39:18.217Z,7.32
2019-05-10T23:41:44.444Z,7.29
2019-05-10T23:44:10.700Z,7.26
2019-05-10T23:46:36.921Z,7.25
2019-05-10T23:49:03.182Z,7.23
2019-05-10T23:51:29.433Z,7.25
2019-05-10T23:53:55.679Z,7.26
2019-05-10T23:56:21.907Z,7.26
2019-05-10T23:58:48.156Z,7.22
